Time;durP1;ratioP1;P1;durP2;ratioP2;P2;SDS_P1;SDS_P2;PMS_P1;PMS_P2;Temp;Humidity;BMP_temperature;BMP_pressure;BME280_temperature;BME280_humidity;BME280_pressure;Samples;Min_cycle;Max_cycle;Signal;HPM_P1;HPM_P2
2024/03/07 00:01:21;;;;;;;;;;;;;;;;;;5073193;28;19908;-70
2024/03/07 00:03:47;;;;;;;;;;;;;;;;;;5074019;28;19908;-70
2024/03/07 00:06:13;;;;;;;;;;;;;;;;;;5074261;28;19935;-70
2024/03/07 00:08:39;;;;;;;;;;;;;;;;;;5073835;28;19908;-70
2024/03/07 00:11:07;;;;;;;;;;;;;;;;;;5072573;28;19909;-70
2024/03/07 00:13:33;;;;;;;;;;;;;;;;;;5074262;28;20287;-70
2024/03/07 00:15:59;;;;;;;;;;;;;;;;;;5074500;28;19908;-70
2024/03/07 00:18:25;;;;;;;;;;;;;;;;;;5073744;28;19938;-70
2024/03/07 00:20:52;;;;;;;;;;;;;;;;;;5074226;28;19961;-70
2024/03/07 00:23:18;;;;;;;;;;;;;;;;;;5074244;28;19916;-70
2024/03/07 00:25:44;;;;;;;;;;;;;;;;;;5074036;28;19908;-70
2024/03/07 00:28:10;;;;;;;;;;;;;;;;;;5072885;28;20461;-70
2024/03/07 00:30:36;;;;;;;;;;;;;;;;;;5074360;28;19908;-70
2024/03/07 00:33:02;;;;;;;;;;;;;;;;;;5073819;28;20003;-71
2024/03/07 00:35:28;;;;;;;;;;;;;;;;;;5074087;28;19981;-71
2024/03/07 00:37:54;;;;;;;;;;;;;;;;;;5073923;28;19916;-71
2024/03/07 00:40:20;;;;;;;;;;;;;;;;;;5073485;28;19916;-70
2024/03/07 00:42:46;;;;;;;;;;;;;;;;;;5072920;28;19908;-71
2024/03/07 00:45:12;;;;;;;;;;;;;;;;;;5073853;28;19908;-70
2024/03/07 00:47:38;;;;;;;;;;;;;;;;;;5073496;28;19999;-70
2024/03/07 00:50:04;;;;;;;;;;;;;;;;;;5073852;28;20250;-70
2024/03/07 00:52:30;;;;;;;;;;;;;;;;;;5073855;28;19915;-70
2024/03/07 00:54:56;;;;;;;;;;;;;;;;;;5073448;28;19977;-70
2024/03/07 00:57:22;;;;;;;;;;;;;;;;;;5074018;28;19912;-70
2024/03/07 00:59:48;;;;;;;;;;;;;;;;;;5073856;28;20356;-70
2024/03/07 01:02:16;;;;;;;;;;;;;;;;;;5073752;28;19908;-70
2024/03/07 01:04:42;;;;;;;;;;;;;;;;;;5073684;28;19940;-70
2024/03/07 01:07:08;;;;;;;;;;;;;;;;;;5073411;28;19916;-71
2024/03/07 01:09:35;;;;;;;;;;;;;;;;;;5073600;28;19909;-70
2024/03/07 01:12:04;;;;;;;;;;;;;;;;;;5073642;28;19913;-70
2024/03/07 01:14:30;;;;;;;;;;;;;;;;;;5073435;28;19909;-70
2024/03/07 01:16:56;;;;;;;;;;;;;;;;;;5073530;28;19920;-70
2024/03/07 01:19:22;;;;;;;;;;;;;;;;;;5074393;28;19916;-70
2024/03/07 01:21:48;;;;;;;;;;;;;;;;;;5077501;28;19938;-70
2024/03/07 01:24:17;;;;;;;;;;;;;;;;;;5077516;28;19930;-70
2024/03/07 01:26:43;;;;;;;;;;;;;;;;;;5077463;28;20293;-70
2024/03/07 01:29:09;;;;;;;;;;;;;;;;;;5077053;28;19908;-71
2024/03/07 01:31:35;;;;;;;;;;;;;;;;;;5077958;28;20234;-70
2024/03/07 01:34:01;;;;;;;;;;;;;;;;;;5077291;28;20381;-71
2024/03/07 01:36:27;;;;;;;;;;;;;;;;;;5075556;28;19912;-71
2024/03/07 01:38:53;;;;;;;;;;;;;;;;;;5077176;28;19962;-71
2024/03/07 01:41:19;;;;;;;;;;;;;;;;;;5077073;28;19943;-71
2024/03/07 01:43:45;;;;;;;;;;;;;;;;;;5076780;28;19915;-70
2024/03/07 01:46:11;;;;;;;;;;;;;;;;;;5077093;28;19908;-70
2024/03/07 01:48:37;;;;;;;;;;;;;;;;;;5076963;28;19966;-70
2024/03/07 01:51:06;;;;;;;;;;;;;;;;;;5075287;28;19908;-71
2024/03/07 01:53:32;;;;;;;;;;;;;;;;;;5076931;28;19908;-70
2024/03/07 01:55:58;;;;;;;;;;;;;;;;;;5076802;28;20365;-71
2024/03/07 01:58:24;;;;;;;;;;;;;;;;;;5076555;28;20423;-71
2024/03/07 02:00:50;;;;;;;;;;;;;;;;;;5077103;28;20361;-70
2024/03/07 02:03:15;;;;;;;;;;;;;;;;;;5075144;28;20359;-71
2024/03/07 02:05:41;;;;;;;;;;;;;;;;;;5075512;28;19909;-70
2024/03/07 02:08:07;;;;;;;;;;;;;;;;;;5076689;28;20330;-70
2024/03/07 02:10:33;;;;;;;;;;;;;;;;;;5076286;28;19954;-70
2024/03/07 02:13:00;;;;;;;;;;;;;;;;;;5076985;28;20284;-71
2024/03/07 02:15:26;;;;;;;;;;;;;;;;;;5076539;28;20007;-70
2024/03/07 02:17:52;;;;;;;;;;;;;;;;;;5076118;28;20412;-70
2024/03/07 02:20:18;;;;;;;;;;;;;;;;;;5076529;28;20368;-70
2024/03/07 02:22:44;;;;;;;;;;;;;;;;;;5076381;28;20376;-70
2024/03/07 02:25:11;;;;;;;;;;;;;;;;;;5074667;28;19908;-71
2024/03/07 02:27:36;;;;;;;;;;;;;;;;;;5076557;28;19912;-71
2024/03/07 02:30:02;;;;;;;;;;;;;;;;;;5075796;28;19916;-70
2024/03/07 02:32:28;;;;;;;;;;;;;;;;;;5075865;28;19962;-70
2024/03/07 02:34:54;;;;;;;;;;;;;;;;;;5076206;28;19909;-70
2024/03/07 02:37:20;;;;;;;;;;;;;;;;;;5076139;28;19992;-71
2024/03/07 02:39:46;;;;;;;;;;;;;;;;;;5075718;28;19916;-71
2024/03/07 02:42:12;;;;;;;;;;;;;;;;;;5076398;28;19915;-70
2024/03/07 02:44:38;;;;;;;;;;;;;;;;;;5076035;28;19999;-70
2024/03/07 02:47:04;;;;;;;;;;;;;;;;;;5075581;28;19908;-70
2024/03/07 02:49:30;;;;;;;;;;;;;;;;;;5075932;28;19962;-71
2024/03/07 02:51:56;;;;;;;;;;;;;;;;;;5075919;28;20007;-70
2024/03/07 02:54:22;;;;;;;;;;;;;;;;;;5074194;28;20418;-70
2024/03/07 02:56:48;;;;;;;;;;;;;;;;;;5076432;28;20422;-70
2024/03/07 02:59:14;;;;;;;;;;;;;;;;;;5075078;28;19960;-71
2024/03/07 03:01:40;;;;;;;;;;;;;;;;;;5075826;28;19908;-70
2024/03/07 03:04:06;;;;;;;;;;;;;;;;;;5074314;28;19920;-71
2024/03/07 03:06:33;;;;;;;;;;;;;;;;;;5075212;28;19908;-70
2024/03/07 03:08:59;;;;;;;;;;;;;;;;;;5075633;28;20368;-70
2024/03/07 03:11:28;;;;;;;;;;;;;;;;;;5075479;28;20415;-70
2024/03/07 03:13:55;;;;;;;;;;;;;;;;;;5075029;28;20444;-71
2024/03/07 03:16:21;;;;;;;;;;;;;;;;;;5075541;28;19915;-71
2024/03/07 03:18:49;;;;;;;;;;;;;;;;;;5075204;28;19917;-70
2024/03/07 03:21:15;;;;;;;;;;;;;;;;;;5074903;28;19915;-70
2024/03/07 03:23:41;;;;;;;;;;;;;;;;;;5075280;28;19908;-70
2024/03/07 03:26:08;;;;;;;;;;;;;;;;;;5075193;28;19978;-70
2024/03/07 03:28:34;;;;;;;;;;;;;;;;;;5074831;28;19913;-70
2024/03/07 03:31:00;;;;;;;;;;;;;;;;;;5075062;28;20360;-70
2024/03/07 03:33:26;;;;;;;;;;;;;;;;;;5075099;28;19975;-70
2024/03/07 03:35:52;;;;;;;;;;;;;;;;;;5074697;28;19915;-70
2024/03/07 03:38:19;;;;;;;;;;;;;;;;;;5074875;28;20353;-70
2024/03/07 03:40:45;;;;;;;;;;;;;;;;;;5074819;28;19909;-71
2024/03/07 03:43:11;;;;;;;;;;;;;;;;;;5073676;28;19916;-71
2024/03/07 03:45:37;;;;;;;;;;;;;;;;;;5074726;28;19908;-70
2024/03/07 03:48:03;;;;;;;;;;;;;;;;;;5074740;28;19943;-71
2024/03/07 03:50:29;;;;;;;;;;;;;;;;;;5074273;28;19908;-70
2024/03/07 03:52:55;;;;;;;;;;;;;;;;;;5074601;28;19914;-70
2024/03/07 03:55:21;;;;;;;;;;;;;;;;;;5074752;28;19909;-70
2024/03/07 03:57:47;;;;;;;;;;;;;;;;;;5073957;28;19924;-70
2024/03/07 04:00:13;;;;;;;;;;;;;;;;;;5074496;28;19912;-70
2024/03/07 04:02:39;;;;;;;;;;;;;;;;;;5074471;28;19908;-71
2024/03/07 04:05:05;;;;;;;;;;;;;;;;;;5073202;28;19909;-71
2024/03/07 04:07:31;;;;;;;;;;;;;;;;;;5074438;28;19909;-70
2024/03/07 04:10:02;;;;;;;;;;;;;;;;;;5073953;28;19999;-70
2024/03/07 04:12:28;;;;;;;;;;;;;;;;;;5074633;28;20436;-70
2024/03/07 04:14:55;;;;;;;;;;;;;;;;;;5074553;28;19966;-71
2024/03/07 04:17:21;;;;;;;;;;;;;;;;;;5073818;28;20057;-70
2024/03/07 04:19:47;;;;;;;;;;;;;;;;;;5074122;28;20424;-70
2024/03/07 04:22:13;;;;;;;;;;;;;;;;;;5073152;28;19912;-70
2024/03/07 04:24:40;;;;;;;;;;;;;;;;;;5073667;28;19908;-70
2024/03/07 04:27:06;;;;;;;;;;;;;;;;;;5074675;28;20268;-71
2024/03/07 04:29:32;;;;;;;;;;;;;;;;;;5074026;28;19912;-70
2024/03/07 04:31:58;;;;;;;;;;;;;;;;;;5073650;28;19916;-71
2024/03/07 04:34:24;;;;;;;;;;;;;;;;;;5074150;28;19909;-70
2024/03/07 04:36:50;;;;;;;;;;;;;;;;;;5073993;28;19915;-71
2024/03/07 04:39:32;;;;;;;;;;;;;;;;;;5073451;28;19916;-71
2024/03/07 04:41:58;;;;;;;;;;;;;;;;;;5074392;28;20373;-71
2024/03/07 04:44:24;;;;;;;;;;;;;;;;;;5073879;28;19914;-71
2024/03/07 04:46:55;;;;;;;;;;;;;;;;;;5073432;28;20003;-71
2024/03/07 04:49:21;;;;;;;;;;;;;;;;;;5074179;28;19944;-71
2024/03/07 04:51:47;;;;;;;;;;;;;;;;;;5073382;28;19912;-71
2024/03/07 04:54:12;;;;;;;;;;;;;;;;;;5073589;28;19916;-70
2024/03/07 04:56:39;;;;;;;;;;;;;;;;;;5073701;28;19909;-70
2024/03/07 04:59:05;;;;;;;;;;;;;;;;;;5073173;28;19932;-71
2024/03/07 05:01:31;;;;;;;;;;;;;;;;;;5073563;28;19944;-71
2024/03/07 05:03:57;;;;;;;;;;;;;;;;;;5073728;28;20339;-72
2024/03/07 05:06:23;;;;;;;;;;;;;;;;;;5072160;28;19915;-71
2024/03/07 05:08:49;;;;;;;;;;;;;;;;;;5073631;28;20007;-70
2024/03/07 05:11:15;;;;;;;;;;;;;;;;;;5073543;28;19962;-70
2024/03/07 05:13:42;;;;;;;;;;;;;;;;;;5073368;28;19962;-71
2024/03/07 05:16:08;;;;;;;;;;;;;;;;;;5073493;28;20003;-70
2024/03/07 05:18:34;;;;;;;;;;;;;;;;;;5074117;28;20352;-71
2024/03/07 05:21:34;;;;;;;;;;;;;;;;;;5073057;28;19915;-71
2024/03/07 05:23:46;;;;;;;;;;;;;;;;;;5073395;28;19912;-72
2024/03/07 05:26:13;;;;;;;;;;;;;;;;;;5073370;28;19953;-70
2024/03/07 05:28:39;;;;;;;;;;;;;;;;;;5073086;28;20280;-70
2024/03/07 05:31:05;;;;;;;;;;;;;;;;;;5073444;28;19923;-70
2024/03/07 05:33:31;;;;;;;;;;;;;;;;;;5073421;28;19908;-71
2024/03/07 05:36:13;;;;;;;;;;;;;;;;;;5072773;28;20003;-71
2024/03/07 05:38:39;;;;;;;;;;;;;;;;;;5072167;28;19957;-71
2024/03/07 05:41:05;;;;;;;;;;;;;;;;;;5071053;28;19995;-71
2024/03/07 05:43:32;;;;;;;;;;;;;;;;;;5073473;28;19940;-71
2024/03/07 05:46:00;;;;;;;;;;;;;;;;;;5071944;28;19915;-71
2024/03/07 05:48:26;;;;;;;;;;;;;;;;;;5071650;28;20329;-71
2024/03/07 05:50:52;;;;;;;;;;;;;;;;;;5073252;28;19952;-71
2024/03/07 05:53:18;;;;;;;;;;;;;;;;;;5073107;28;19908;-71
2024/03/07 05:55:45;;;;;;;;;;;;;;;;;;5072663;28;19954;-71
2024/03/07 05:58:12;;;;;;;;;;;;;;;;;;5072159;28;19947;-70
2024/03/07 06:00:38;;;;;;;;;;;;;;;;;;5073367;28;19909;-71
2024/03/07 06:03:04;;;;;;;;;;;;;;;;;;5072700;28;20288;-70
2024/03/07 06:05:30;;;;;;;;;;;;;;;;;;5073260;28;19915;-71
2024/03/07 06:07:56;;;;;;;;;;;;;;;;;;5075390;28;19912;-70
2024/03/07 06:10:25;;;;;;;;;;;;;;;;;;5075728;28;20003;-70
2024/03/07 06:12:51;;;;;;;;;;;;;;;;;;5076177;28;19909;-70
2024/03/07 06:15:17;;;;;;;;;;;;;;;;;;5072556;28;19909;-66
2024/03/07 06:17:46;;;;;;;;;;;;;;;;;;5075021;28;19919;-71
2024/03/07 06:20:22;;;;;;;;;;;;;;;;;;5064966;28;19924;-71
2024/03/07 06:22:49;;;;;;;;;;;;;;;;;;5070344;28;20324;-72
2024/03/07 06:25:20;;;;;;;;;;;;;;;;;;5073774;28;19913;-69
2024/03/07 06:27:48;;;;;;;;;;;;;;;;;;5074314;28;19919;-69
2024/03/07 06:30:17;;;;;;;;;;;;;;;;;;5073017;28;20345;-69
2024/03/07 06:32:43;;;;;;;;;;;;;;;;;;5071354;28;19912;-70
2024/03/07 06:35:12;;;;;;;;;;;;;;;;;;5071303;28;19920;-71
2024/03/07 06:37:39;;;;;;;;;;;;;;;;;;5069295;28;20272;-70
2024/03/07 06:40:09;;;;;;;;;;;;;;;;;;5071964;28;20365;-72
2024/03/07 06:42:36;;;;;;;;;;;;;;;;;;5073054;28;19919;-74
2024/03/07 06:45:02;;;;;;;;;;;;;;;;;;5063744;28;20328;-73
2024/03/07 06:47:28;;;;;;;;;;;;;;;;;;5072183;28;20007;-72
2024/03/07 06:49:54;;;;;;;;;;;;;;;;;;5072115;28;19916;-72
2024/03/07 06:52:20;;;;;;;;;;;;;;;;;;5072950;28;20327;-71
2024/03/07 06:54:46;;;;;;;;;;;;;;;;;;5070787;28;20418;-71
2024/03/07 06:57:12;;;;;;;;;;;;;;;;;;5073384;28;19947;-69
2024/03/07 06:59:38;;;;;;;;;;;;;;;;;;5067925;28;19920;-67
2024/03/07 07:02:04;;;;;;;;;;;;;;;;;;5070387;28;19962;-67
2024/03/07 07:04:41;;;;;;;;;;;;;;;;;;5061085;28;19936;-68
2024/03/07 07:07:07;;;;;;;;;;;;;;;;;;5075048;28;19913;-67
2024/03/07 07:09:35;;;;;;;;;;;;;;;;;;5074091;28;19954;-67
2024/03/07 07:12:03;;;;;;;;;;;;;;;;;;5069201;28;19935;-67
2024/03/07 07:14:29;;;;;;;;;;;;;;;;;;5072370;28;19974;-67
2024/03/07 07:16:55;;;;;;;;;;;;;;;;;;5065301;28;20365;-68
2024/03/07 07:19:21;;;;;;;;;;;;;;;;;;5052770;28;19921;-66
2024/03/07 07:21:53;;;;;;;;;;;;;;;;;;5067863;28;19927;-66
2024/03/07 07:24:19;;;;;;;;;;;;;;;;;;5071576;28;19913;-67
2024/03/07 07:26:45;;;;;;;;;;;;;;;;;;5068907;28;19955;-68
2024/03/07 07:29:11;;;;;;;;;;;;;;;;;;5066678;28;20379;-68
2024/03/07 07:31:37;;;;;;;;;;;;;;;;;;5067416;28;19923;-68
2024/03/07 07:34:04;;;;;;;;;;;;;;;;;;5069850;28;19947;-68
2024/03/07 07:36:30;;;;;;;;;;;;;;;;;;5070837;28;19958;-69
2024/03/07 07:38:56;;;;;;;;;;;;;;;;;;5068740;28;19924;-73
2024/03/07 07:41:22;;;;;;;;;;;;;;;;;;5072275;28;19946;-72
2024/03/07 07:43:48;;;;;;;;;;;;;;;;;;5062567;28;20146;-71
2024/03/07 07:46:15;;;;;;;;;;;;;;;;;;5069436;28;19920;-72
2024/03/07 07:48:41;;;;;;;;;;;;;;;;;;5064228;28;19913;-71
2024/03/07 07:51:07;;;;;;;;;;;;;;;;;;5050881;28;20463;-72
2024/03/07 07:53:33;;;;;;;;;;;;;;;;;;5053079;28;20548;-69
2024/03/07 07:55:59;;;;;;;;;;;;;;;;;;5071155;28;19909;-71
2024/03/07 07:58:25;;;;;;;;;;;;;;;;;;5070394;28;19924;-69
2024/03/07 08:00:51;;;;;;;;;;;;;;;;;;5064926;28;19912;-70
2024/03/07 08:03:22;;;;;;;;;;;;;;;;;;5058383;28;19959;-70
2024/03/07 08:05:48;;;;;;;;;;;;;;;;;;5051446;28;19909;-69
2024/03/07 08:08:16;;;;;;;;;;;;;;;;;;5067455;28;19917;-67
2024/03/07 08:10:42;;;;;;;;;;;;;;;;;;5063580;28;19912;-67
2024/03/07 08:13:13;;;;;;;;;;;;;;;;;;5070200;28;19919;-67
2024/03/07 08:15:39;;;;;;;;;;;;;;;;;;5069415;28;19987;-70
2024/03/07 08:18:13;;;;;;;;;;;;;;;;;;5066104;28;19921;-70
2024/03/07 08:20:39;;;;;;;;;;;;;;;;;;5063725;28;19913;-69
2024/03/07 08:23:05;;;;;;;;;;;;;;;;;;5057108;28;19919;-69
2024/03/07 08:25:31;;;;;;;;;;;;;;;;;;5057685;28;20002;-69
2024/03/07 08:27:57;;;;;;;;;;;;;;;;;;5060633;28;19928;-69
2024/03/07 08:30:23;;;;;;;;;;;;;;;;;;5068147;28;19951;-70
2024/03/07 08:32:51;;;;;;;;;;;;;;;;;;5065877;28;20569;-71
2024/03/07 08:35:17;;;;;;;;;;;;;;;;;;5067766;28;19917;-70
2024/03/07 08:37:44;;;;;;;;;;;;;;;;;;5068150;28;19909;-70
2024/03/07 08:40:10;;;;;;;;;;;;;;;;;;5068666;28;19975;-71
2024/03/07 08:42:36;;;;;;;;;;;;;;;;;;5068822;28;19912;-69
2024/03/07 08:45:05;;;;;;;;;;;;;;;;;;5065855;28;19918;-69
2024/03/07 08:47:31;;;;;;;;;;;;;;;;;;5068481;28;19912;-68
2024/03/07 08:49:57;;;;;;;;;;;;;;;;;;5068112;28;19923;-70
2024/03/07 08:52:23;;;;;;;;;;;;;;;;;;5066736;28;19919;-70
2024/03/07 08:54:49;;;;;;;;;;;;;;;;;;5068677;28;19919;-69
2024/03/07 08:57:17;;;;;;;;;;;;;;;;;;5062995;28;19909;-69
2024/03/07 08:59:43;;;;;;;;;;;;;;;;;;5057062;28;19963;-69
2024/03/07 09:02:10;;;;;;;;;;;;;;;;;;5065341;28;20340;-69
2024/03/07 09:04:36;;;;;;;;;;;;;;;;;;5068759;28;19917;-70
2024/03/07 09:07:03;;;;;;;;;;;;;;;;;;5070361;28;19908;-69
2024/03/07 09:09:30;;;;;;;;;;;;;;;;;;5067485;28;19944;-69
2024/03/07 09:11:56;;;;;;;;;;;;;;;;;;5068734;28;20015;-69
2024/03/07 09:14:22;;;;;;;;;;;;;;;;;;5067420;28;19939;-70
2024/03/07 09:16:48;;;;;;;;;;;;;;;;;;5060532;28;19908;-69
2024/03/07 09:19:19;;;;;;;;;;;;;;;;;;5080568;28;20356;-70
2024/03/07 09:21:46;;;;;;;;;;;;;;;;;;5062334;28;20612;-70
2024/03/07 09:24:12;;;;;;;;;;;;;;;;;;5065092;28;19908;-71
2024/03/07 09:26:38;;;;;;;;;;;;;;;;;;5067455;28;20038;-70
2024/03/07 09:29:05;;;;;;;;;;;;;;;;;;5066003;28;19916;-70
2024/03/07 09:31:31;;;;;;;;;;;;;;;;;;5064864;28;20003;-70
2024/03/07 09:33:58;;;;;;;;;;;;;;;;;;5058582;28;20024;-71
2024/03/07 09:36:24;;;;;;;;;;;;;;;;;;5065589;28;20684;-69
2024/03/07 09:38:50;;;;;;;;;;;;;;;;;;5065280;28;20015;-69
2024/03/07 09:41:17;;;;;;;;;;;;;;;;;;5073116;28;20368;-70
2024/03/07 09:43:44;;;;;;;;;;;;;;;;;;5075440;28;20444;-71
2024/03/07 09:46:10;;;;;;;;;;;;;;;;;;5069201;28;20011;-70
2024/03/07 09:48:37;;;;;;;;;;;;;;;;;;5062393;28;20007;-69
2024/03/07 09:51:02;;;;;;;;;;;;;;;;;;5070387;28;19912;-71
2024/03/07 09:53:28;;;;;;;;;;;;;;;;;;5074461;28;20280;-70
2024/03/07 09:55:55;;;;;;;;;;;;;;;;;;5072525;28;20288;-70
2024/03/07 09:58:21;;;;;;;;;;;;;;;;;;5077579;28;19950;-69
2024/03/07 10:00:50;;;;;;;;;;;;;;;;;;5070775;28;19920;-69
2024/03/07 10:03:17;;;;;;;;;;;;;;;;;;5069356;28;20365;-68
2024/03/07 10:09:08;;;;;;;;;;;;;;;;;;5084100;27;20362;-69
2024/03/07 10:11:35;;;;;;;;;;;;;;;;;;5068289;28;19916;-69
2024/03/07 10:14:03;;;;;;;;;;;;;;;;;;5063933;28;19916;-69
2024/03/07 10:16:28;;;;;;;;;;;;;;;;;;5064598;28;19916;-69
2024/03/07 10:18:54;;;;;;;;;;;;;;;;;;5052470;28;20313;-69
2024/03/07 10:21:21;;;;;;;;;;;;;;;;;;5065107;28;20052;-68
2024/03/07 10:23:47;;;;;;;;;;;;;;;;;;5069676;28;20460;-69
2024/03/07 10:26:13;;;;;;;;;;;;;;;;;;5063224;28;19917;-70
2024/03/07 10:28:39;;;;;;;;;;;;;;;;;;5082988;28;20747;-70
2024/03/07 10:31:11;;;;;;;;;;;;;;;;;;5068428;28;19996;-69
2024/03/07 10:33:37;;;;;;;;;;;;;;;;;;5063818;28;19921;-69
2024/03/07 10:36:04;;;;;;;;;;;;;;;;;;5067406;28;19938;-70
2024/03/07 10:38:29;;;;;;;;;;;;;;;;;;5064346;28;20019;-69
2024/03/07 10:40:56;;;;;;;;;;;;;;;;;;5066353;28;20032;-69
2024/03/07 10:45:30;;;;;;;;;;;;;;;;;;5044217;28;20791;-70
2024/03/07 10:47:56;;;;;;;;;;;;;;;;;;5044698;28;19928;-69
2024/03/07 10:51:05;;;;;;;;;;;;;;;;;;5080766;27;19920;-76
2024/03/07 10:54:17;;;;;;;;;;;;;;;;;;5081101;27;19925;-72
2024/03/07 10:56:43;;;;;;;;;;;;;;;;;;5079360;28;19916;-71
2024/03/07 11:01:57;;;;;;;;;;;;;;;;;;5107631;27;19916;-74
2024/03/07 11:04:24;;;;;;;;;;;;;;;;;;5106460;28;20015;-74
2024/03/07 11:06:53;;;;;;;;;;;;;;;;;;5105576;28;19908;-74
2024/03/07 11:09:30;;;;;;;;;;;;;;;;;;5086221;28;20322;-74
2024/03/07 11:13:49;;;;;;;;;;;;;;;;;;5082030;27;20392;-74
2024/03/07 11:16:15;;;;;;;;;;;;;;;;;;5083259;28;19912;-74
2024/03/07 11:19:09;;;;;;;;;;;;;;;;;;5083847;28;19938;-73
2024/03/07 11:21:59;;;;;;;;;;;;;;;;;;5083869;27;19923;-72
2024/03/07 11:24:25;;;;;;;;;;;;;;;;;;5084501;28;19916;-72
2024/03/07 11:30:13;;;;;;;;;;;;;;;;;;5109416;27;19937;-73
2024/03/07 11:35:01;;;;;;;;;;;;;;;;;;5159464;27;19919;-72
2024/03/07 11:39:58;;;;;;;;;;;;;;;;;;5065673;28;19927;-72
2024/03/07 11:42:26;;;;;;;;;;;;;;;;;;5065058;28;19912;-72
2024/03/07 11:45:38;;;;;;;;;;;;;;;;;;5143484;27;20437;-71
2024/03/07 11:49:59;;;;;;;;;;;;;;;;;;5109090;27;19916;-71
2024/03/07 11:52:46;;;;;;;;;;;;;;;;;;5108940;27;19922;-71
2024/03/07 11:57:03;;;;;;;;;;;;;;;;;;5108166;27;19916;-72
2024/03/07 11:59:37;;;;;;;;;;;;;;;;;;5107502;28;19912;-71
2024/03/07 12:02:29;;;;;;;;;;;;;;;;;;5091154;27;19923;-70
2024/03/07 12:07:00;;;;;;;;;;;;;;;;;;5169275;27;19918;-69
2024/03/07 12:11:16;;;;;;;;;;;;;;;;;;5112678;27;20368;-71
2024/03/07 12:13:42;;;;;;;;;;;;;;;;;;5118714;28;19939;-73
2024/03/07 12:16:08;;;;;;;;;;;;;;;;;;5114553;28;19962;-72
2024/03/07 12:18:34;;;;;;;;;;;;;;;;;;5113656;27;19915;-71
2024/03/07 12:21:30;;;;;;;;;;;;;;;;;;5086039;27;19912;-70
2024/03/07 12:23:56;;;;;;;;;;;;;;;;;;5084438;28;19923;-71
2024/03/07 12:26:25;;;;;;;;;;;;;;;;;;5085141;28;20467;-70
2024/03/07 12:28:53;;;;;;;;;;;;;;;;;;5087379;28;19932;-69
2024/03/07 12:31:18;;;;;;;;;;;;;;;;;;5088697;28;19959;-68
2024/03/07 12:36:05;;;;;;;;;;;;;;;;;;5020298;28;19924;-68
2024/03/07 12:39:24;;;;;;;;;;;;;;;;;;5129025;27;19916;-69
2024/03/07 12:41:52;;;;;;;;;;;;;;;;;;5110535;28;19923;-70
2024/03/07 12:44:20;;;;;;;;;;;;;;;;;;5128163;28;19918;-69
2024/03/07 12:46:45;;;;;;;;;;;;;;;;;;5122064;28;19912;-69
2024/03/07 12:49:15;;;;;;;;;;;;;;;;;;5113109;27;19908;-70
2024/03/07 12:51:41;;;;;;;;;;;;;;;;;;5114066;28;19959;-68
2024/03/07 12:54:09;;;;;;;;;;;;;;;;;;5124857;27;19964;-67
2024/03/07 12:56:37;;;;;;;;;;;;;;;;;;5111241;28;19938;-67
2024/03/07 12:59:03;;;;;;;;;;;;;;;;;;5108493;28;20264;-68
2024/03/07 13:03:20;;;;;;;;;;;;;;;;;;5050375;27;2187262;-69
2024/03/07 13:05:46;;;;;;;;;;;;;;;;;;5105429;28;20655;-69
2024/03/07 13:08:26;;;;;;;;;;;;;;;;;;5084750;27;19924;-70
2024/03/07 13:10:55;;;;;;;;;;;;;;;;;;5082806;28;19919;-72
2024/03/07 13:13:21;;;;;;;;;;;;;;;;;;5075578;28;19909;-72
2024/03/07 13:16:13;;;;;;;;;;;;;;;;;;5069859;28;19924;-71
2024/03/07 13:18:39;;;;;;;;;;;;;;;;;;5068953;28;19912;-67
2024/03/07 13:21:06;;;;;;;;;;;;;;;;;;5069588;28;20257;-71
2024/03/07 13:24:28;;;;;;;;;;;;;;;;;;5088832;27;19954;-70
2024/03/07 13:26:54;;;;;;;;;;;;;;;;;;5088494;28;19913;-70
2024/03/07 13:29:24;;;;;;;;;;;;;;;;;;5090820;28;20280;-70
2024/03/07 13:31:50;;;;;;;;;;;;;;;;;;5090955;28;20339;-70
2024/03/07 13:34:16;;;;;;;;;;;;;;;;;;5066688;28;20011;-70
2024/03/07 13:36:42;;;;;;;;;;;;;;;;;;5070385;28;19938;-70
2024/03/07 13:40:24;;;;;;;;;;;;;;;;;;5078916;27;19924;-70
2024/03/07 13:42:51;;;;;;;;;;;;;;;;;;5089358;28;19968;-70
2024/03/07 13:45:18;;;;;;;;;;;;;;;;;;5090780;28;19912;-71
2024/03/07 13:47:44;;;;;;;;;;;;;;;;;;5090276;28;20439;-72
2024/03/07 13:50:11;;;;;;;;;;;;;;;;;;5088677;28;19951;-71
2024/03/07 13:52:43;;;;;;;;;;;;;;;;;;5084323;28;19919;-70
2024/03/07 13:56:52;;;;;;;;;;;;;;;;;;5087110;27;19921;-69
2024/03/07 13:59:18;;;;;;;;;;;;;;;;;;5087029;28;19913;-70
2024/03/07 14:01:45;;;;;;;;;;;;;;;;;;5088080;28;19909;-71
2024/03/07 14:04:11;;;;;;;;;;;;;;;;;;5086864;28;19908;-69
2024/03/07 14:06:37;;;;;;;;;;;;;;;;;;5087429;28;19909;-70
2024/03/07 14:09:03;;;;;;;;;;;;;;;;;;5087674;28;19912;-70
2024/03/07 14:11:31;;;;;;;;;;;;;;;;;;5088132;28;19970;-70
2024/03/07 14:14:00;;;;;;;;;;;;;;;;;;5086020;28;19952;-70
2024/03/07 14:17:55;;;;;;;;;;;;;;;;;;5069340;28;19917;-71
2024/03/07 14:20:22;;;;;;;;;;;;;;;;;;5069840;28;19944;-70
2024/03/07 14:22:50;;;;;;;;;;;;;;;;;;5065772;28;19932;-71
2024/03/07 14:25:18;;;;;;;;;;;;;;;;;;5068721;28;19909;-71
2024/03/07 14:27:49;;;;;;;;;;;;;;;;;;5068086;28;19916;-71
2024/03/07 14:30:20;;;;;;;;;;;;;;;;;;5066640;28;20357;-70
2024/03/07 14:32:46;;;;;;;;;;;;;;;;;;5066314;28;19944;-70
2024/03/07 14:36:27;;;;;;;;;;;;;;;;;;5109951;27;19916;-70
2024/03/07 14:38:53;;;;;;;;;;;;;;;;;;5111311;28;19947;-70
2024/03/07 14:41:22;;;;;;;;;;;;;;;;;;5111518;28;19908;-72
2024/03/07 14:43:48;;;;;;;;;;;;;;;;;;5111093;28;19930;-71
2024/03/07 14:48:49;;;;;;;;;;;;;;;;;;5131932;27;20014;-70
2024/03/07 14:51:15;;;;;;;;;;;;;;;;;;5131577;28;19934;-71
2024/03/07 14:54:29;;;;;;;;;;;;;;;;;;5091329;27;19917;-71
2024/03/07 14:56:54;;;;;;;;;;;;;;;;;;5090771;28;20015;-71
2024/03/07 14:59:23;;;;;;;;;;;;;;;;;;5091572;28;20412;-71
2024/03/07 15:01:50;;;;;;;;;;;;;;;;;;5091663;28;19962;-71
2024/03/07 15:04:16;;;;;;;;;;;;;;;;;;5081546;28;19913;-70
2024/03/07 15:06:45;;;;;;;;;;;;;;;;;;5088247;28;19920;-70
2024/03/07 15:09:13;;;;;;;;;;;;;;;;;;5090152;28;19995;-70
2024/03/07 15:12:39;;;;;;;;;;;;;;;;;;5090644;27;19913;-71
2024/03/07 15:15:31;;;;;;;;;;;;;;;;;;5144405;27;20282;-71
2024/03/07 15:18:55;;;;;;;;;;;;;;;;;;5091042;27;19917;-72
2024/03/07 15:21:21;;;;;;;;;;;;;;;;;;5091036;28;20011;-70
2024/03/07 15:27:44;;;;;;;;;;;;;;;;;;5091183;27;19912;-72
2024/03/07 15:30:42;;;;;;;;;;;;;;;;;;5091525;28;20287;-69
2024/03/07 15:33:08;;;;;;;;;;;;;;;;;;5090771;28;19995;-70
2024/03/07 15:36:11;;;;;;;;;;;;;;;;;;5091029;27;19917;-72
2024/03/07 15:38:38;;;;;;;;;;;;;;;;;;5091209;28;20426;-71
2024/03/07 15:41:04;;;;;;;;;;;;;;;;;;5090869;28;19909;-71
2024/03/07 15:45:32;;;;;;;;;;;;;;;;;;5091780;27;19916;-70
2024/03/07 15:48:08;;;;;;;;;;;;;;;;;;5090948;28;20321;-70
2024/03/07 15:50:35;;;;;;;;;;;;;;;;;;5091226;28;19915;-70
2024/03/07 15:53:04;;;;;;;;;;;;;;;;;;5090018;28;20002;-70
2024/03/07 15:55:31;;;;;;;;;;;;;;;;;;5090846;28;19909;-71
2024/03/07 15:57:59;;;;;;;;;;;;;;;;;;5091278;28;19915;-71
2024/03/07 16:00:25;;;;;;;;;;;;;;;;;;5090717;28;19914;-71
2024/03/07 16:02:50;;;;;;;;;;;;;;;;;;5090857;28;19946;-71
2024/03/07 16:05:16;;;;;;;;;;;;;;;;;;5090932;28;19959;-71
2024/03/07 16:07:42;;;;;;;;;;;;;;;;;;5090620;28;20021;-73
2024/03/07 16:10:08;;;;;;;;;;;;;;;;;;5090964;28;20396;-71
2024/03/07 16:12:35;;;;;;;;;;;;;;;;;;5089503;28;19914;-71
2024/03/07 16:15:01;;;;;;;;;;;;;;;;;;5090572;28;19915;-72
2024/03/07 16:17:27;;;;;;;;;;;;;;;;;;5090801;28;19908;-71
2024/03/07 16:19:53;;;;;;;;;;;;;;;;;;5090777;28;20062;-71
2024/03/07 16:22:18;;;;;;;;;;;;;;;;;;5090213;28;19916;-70
2024/03/07 16:24:44;;;;;;;;;;;;;;;;;;5090572;28;20018;-70
2024/03/07 16:27:10;;;;;;;;;;;;;;;;;;5089213;28;19935;-70
2024/03/07 16:29:36;;;;;;;;;;;;;;;;;;5089940;28;19999;-71
2024/03/07 16:32:05;;;;;;;;;;;;;;;;;;5089128;28;19913;-71
2024/03/07 16:34:31;;;;;;;;;;;;;;;;;;5090455;28;19908;-72
2024/03/07 16:36:57;;;;;;;;;;;;;;;;;;5090012;28;20335;-71
2024/03/07 16:39:24;;;;;;;;;;;;;;;;;;5090360;28;19915;-71
2024/03/07 16:41:50;;;;;;;;;;;;;;;;;;5090471;28;19908;-72
2024/03/07 16:44:17;;;;;;;;;;;;;;;;;;5099899;28;20331;-71
2024/03/07 16:46:43;;;;;;;;;;;;;;;;;;5110636;28;19908;-71
2024/03/07 16:49:08;;;;;;;;;;;;;;;;;;5110348;28;20284;-72
2024/03/07 16:51:34;;;;;;;;;;;;;;;;;;5110772;28;20371;-72
2024/03/07 16:54:00;;;;;;;;;;;;;;;;;;5110360;28;19966;-72
2024/03/07 16:56:27;;;;;;;;;;;;;;;;;;5080679;28;20164;-71
2024/03/07 16:58:53;;;;;;;;;;;;;;;;;;5096756;28;19931;-71
2024/03/07 17:01:19;;;;;;;;;;;;;;;;;;5096803;28;20277;-71
2024/03/07 17:03:44;;;;;;;;;;;;;;;;;;5096350;28;19985;-72
2024/03/07 17:06:10;;;;;;;;;;;;;;;;;;5096649;28;19908;-71
2024/03/07 17:08:39;;;;;;;;;;;;;;;;;;5097123;28;20372;-71
2024/03/07 17:11:06;;;;;;;;;;;;;;;;;;5096476;28;19944;-71
2024/03/07 17:13:32;;;;;;;;;;;;;;;;;;5096402;28;19995;-71
2024/03/07 17:15:58;;;;;;;;;;;;;;;;;;5096396;28;19951;-71
2024/03/07 17:18:24;;;;;;;;;;;;;;;;;;5095496;28;19951;-71
2024/03/07 17:20:50;;;;;;;;;;;;;;;;;;5095726;28;19908;-70
2024/03/07 17:23:17;;;;;;;;;;;;;;;;;;5094739;28;19953;-70
2024/03/07 17:25:43;;;;;;;;;;;;;;;;;;5095180;28;20384;-71
2024/03/07 17:28:09;;;;;;;;;;;;;;;;;;5096200;28;20372;-71
2024/03/07 17:30:35;;;;;;;;;;;;;;;;;;5096268;28;19916;-72
2024/03/07 17:33:01;;;;;;;;;;;;;;;;;;5095770;28;20360;-70
2024/03/07 17:35:27;;;;;;;;;;;;;;;;;;5095999;28;20245;-70
2024/03/07 17:37:53;;;;;;;;;;;;;;;;;;5095913;28;20271;-71